Time;durP1;ratioP1;P1;durP2;ratioP2;P2;SDS_P1;SDS_P2;PMS_P1;PMS_P2;Temp;Humidity;BMP_temperature;BMP_pressure;BME280_temperature;BME280_humidity;BME280_pressure;Samples;Min_cycle;Max_cycle;Signal;HPM_P1;HPM_P2
2023/06/30 00:01:28;;;;;;;7.57;6.70;;;21.70;99.90;;;;;;5047296;28;20286;-62
2023/06/30 00:03:54;;;;;;;9.93;7.80;;;21.70;99.90;;;;;;5046106;28;20669;-63
2023/06/30 00:06:19;;;;;;;11.87;8.27;;;21.70;99.90;;;;;;5045567;28;20829;-62
2023/06/30 00:08:45;;;;;;;11.50;9.17;;;21.70;99.90;;;;;;5047721;28;20206;-62
2023/06/30 00:11:10;;;;;;;12.03;9.90;;;21.70;99.90;;;;;;5050352;28;20260;-62
2023/06/30 00:13:36;;;;;;;11.05;8.82;;;21.70;99.90;;;;;;5044975;28;20215;-62
2023/06/30 00:16:01;;;;;;;10.47;9.37;;;21.70;99.90;;;;;;5047497;28;20209;-62
2023/06/30 00:18:29;;;;;;;13.40;9.67;;;21.70;99.90;;;;;;5047713;28;20209;-62
2023/06/30 00:20:54;;;;;;;13.70;11.57;;;21.60;99.90;;;;;;5045151;28;20553;-61
2023/06/30 00:23:20;;;;;;;21.20;15.33;;;21.60;99.90;;;;;;5048795;28;20206;-61
2023/06/30 00:25:46;;;;;;;16.80;12.43;;;21.60;99.90;;;;;;5048378;28;20292;-62
2023/06/30 00:28:12;;;;;;;18.87;11.97;;;21.60;99.90;;;;;;5044103;28;20717;-60
2023/06/30 00:30:41;;;;;;;13.73;11.93;;;21.60;99.90;;;;;;5051894;28;20202;-62
2023/06/30 00:33:06;;;;;;;14.10;11.57;;;21.50;99.90;;;;;;5043383;28;20211;-61
2023/06/30 00:35:32;;;;;;;15.87;13.47;;;21.50;99.90;;;;;;5047661;28;20207;-61
2023/06/30 00:37:57;;;;;;;14.70;12.40;;;21.40;99.90;;;;;;5047722;28;20673;-60
2023/06/30 00:40:23;;;;;;;18.03;13.30;;;21.30;99.90;;;;;;5047283;28;20237;-61
2023/06/30 00:42:48;;;;;;;16.87;11.97;;;21.20;99.90;;;;;;5045625;28;20552;-61
2023/06/30 00:45:13;;;;;;;17.00;13.20;;;21.10;99.90;;;;;;5047315;28;20238;-61
2023/06/30 00:47:39;;;;;;;16.30;13.37;;;20.90;99.90;;;;;;5046503;28;20250;-61
2023/06/30 00:50:05;;;;;;;16.47;13.17;;;20.90;99.90;;;;;;5052562;28;20271;-60
2023/06/30 00:52:31;;;;;;;17.93;13.17;;;20.90;99.90;;;;;;5049869;28;20225;-61
2023/06/30 00:54:57;;;;;;;17.77;14.43;;;20.90;99.90;;;;;;5050415;28;20202;-60
2023/06/30 00:57:23;;;;;;;15.93;12.80;;;20.80;99.90;;;;;;5042508;28;20220;-61
2023/06/30 00:59:48;;;;;;;15.93;13.90;;;20.80;99.90;;;;;;5047829;28;20206;-61
2023/06/30 01:02:19;;;;;;;17.33;14.20;;;20.80;99.90;;;;;;5047697;28;20700;-61
2023/06/30 01:04:56;;;;;;;18.33;14.53;;;20.80;99.90;;;;;;5047088;28;20205;-62
2023/06/30 01:07:39;;;;;;;16.27;14.00;;;20.70;99.90;;;;;;5046688;28;20287;-61
2023/06/30 01:10:21;;;;;;;17.37;13.93;;;20.50;99.90;;;;;;5046552;28;20205;-61
2023/06/30 01:12:47;;;;;;;16.83;15.03;;;20.50;99.90;;;;;;5046177;28;20599;-62
2023/06/30 01:15:14;;;;;;;17.30;14.00;;;20.50;99.90;;;;;;5045887;28;20287;-61
2023/06/30 01:17:48;;;;;;;17.80;14.77;;;20.40;99.90;;;;;;5047230;28;20200;-61
2023/06/30 01:20:16;;;;;;;17.73;15.33;;;20.40;99.90;;;;;;5046821;28;20292;-62
2023/06/30 01:23:12;;;;;;;19.27;14.83;;;20.20;99.90;;;;;;5044529;28;20792;-61
2023/06/30 01:25:38;;;;;;;20.13;16.70;;;20.00;99.90;;;;;;5043282;28;20241;-62
2023/06/30 01:28:04;;;;;;;19.53;15.33;;;19.90;99.90;;;;;;5048583;28;20257;-61
2023/06/30 01:30:30;;;;;;;18.53;15.67;;;19.80;99.90;;;;;;5047531;28;20750;-62
2023/06/30 01:32:58;;;;;;;19.73;15.30;;;19.90;99.90;;;;;;5044528;28;20223;-61
2023/06/30 01:35:24;;;;;;;19.70;14.80;;;19.90;99.90;;;;;;5045687;28;20245;-60
2023/06/30 01:37:50;;;;;;;17.33;15.53;;;20.00;99.90;;;;;;5049211;28;20857;-62
2023/06/30 01:40:16;;;;;;;17.47;14.60;;;20.00;99.90;;;;;;5053134;28;20309;-63
2023/06/30 01:42:42;;;;;;;17.23;14.40;;;20.00;99.90;;;;;;5046409;28;20727;-63
2023/06/30 01:45:09;;;;;;;20.53;15.53;;;19.90;99.90;;;;;;5047724;28;20208;-64
2023/06/30 01:47:35;;;;;;;18.23;16.03;;;19.90;99.90;;;;;;5050394;28;20209;-70
2023/06/30 01:50:01;;;;;;;21.93;16.50;;;19.70;99.90;;;;;;5062630;28;20200;-62
2023/06/30 01:52:27;;;;;;;21.47;16.33;;;19.70;99.90;;;;;;5064487;28;20273;-63
2023/06/30 01:54:52;;;;;;;21.93;17.37;;;19.60;99.90;;;;;;5065845;28;20226;-60
2023/06/30 01:57:18;;;;;;;21.53;17.03;;;19.60;99.90;;;;;;5049689;28;20205;-60
2023/06/30 01:59:44;;;;;;;23.87;16.53;;;19.60;99.90;;;;;;5052685;28;20192;-61
2023/06/30 02:02:09;;;;;;;21.00;16.97;;;19.70;99.90;;;;;;5053877;28;20271;-73
2023/06/30 02:04:35;;;;;;;18.97;15.87;;;19.80;99.90;;;;;;5052763;28;20706;-79
2023/06/30 02:07:00;;;;;;;22.30;17.13;;;19.90;99.90;;;;;;5063490;28;20193;-75
2023/06/30 02:09:26;;;;;;;26.63;17.40;;;19.80;99.90;;;;;;5064321;28;20319;-77
2023/06/30 02:11:51;;;;;;;19.80;16.93;;;19.60;99.90;;;;;;5054459;28;20570;-76
2023/06/30 02:14:17;;;;;;;20.20;16.23;;;19.60;99.90;;;;;;5053917;28;20285;-69
2023/06/30 02:16:42;;;;;;;19.13;16.80;;;19.80;99.90;;;;;;5049429;28;20200;-68
2023/06/30 02:19:07;;;;;;;21.13;16.53;;;19.90;99.90;;;;;;5049965;28;20689;-75
2023/06/30 02:21:33;;;;;;;17.80;15.77;;;20.10;99.90;;;;;;5048550;28;20200;-74
2023/06/30 02:23:58;;;;;;;21.67;16.80;;;20.20;99.90;;;;;;5051604;28;20194;-68
2023/06/30 02:26:24;;;;;;;17.87;15.47;;;20.20;99.90;;;;;;5047645;28;20947;-69
2023/06/30 02:28:49;;;;;;;23.07;17.17;;;20.20;99.90;;;;;;5049427;28;20224;-68
2023/06/30 02:31:15;;;;;;;21.40;17.23;;;20.10;99.90;;;;;;5052253;28;20206;-73
2023/06/30 02:33:41;;;;;;;20.80;16.90;;;20.10;99.90;;;;;;5046727;28;20536;-72
2023/06/30 02:36:06;;;;;;;22.03;17.50;;;19.90;99.90;;;;;;5050762;28;20960;-73
2023/06/30 02:38:32;;;;;;;20.60;16.17;;;19.80;99.90;;;;;;5049135;28;20190;-72
2023/06/30 02:40:58;;;;;;;20.53;16.90;;;19.70;99.90;;;;;;5047891;28;20233;-74
2023/06/30 02:43:23;;;;;;;20.70;16.60;;;19.70;99.90;;;;;;5048958;28;20206;-74
2023/06/30 02:45:49;;;;;;;23.23;18.33;;;19.90;99.90;;;;;;5064684;28;20970;-73
2023/06/30 02:48:14;;;;;;;18.97;16.80;;;20.10;99.90;;;;;;5048876;28;20199;-73
2023/06/30 02:50:39;;;;;;;20.63;16.50;;;20.20;99.90;;;;;;5051058;28;20274;-64
2023/06/30 02:53:06;;;;;;;21.20;16.83;;;20.10;99.90;;;;;;5060936;28;20850;-63
2023/06/30 02:55:32;;;;;;;21.23;17.80;;;20.10;99.90;;;;;;5046864;28;20326;-63
2023/06/30 02:57:58;;;;;;;21.07;17.30;;;20.10;99.90;;;;;;5048941;28;20205;-61
2023/06/30 03:00:24;;;;;;;22.33;17.57;;;20.20;99.90;;;;;;5048791;28;20205;-71
2023/06/30 03:02:49;;;;;;;20.37;16.63;;;20.20;99.90;;;;;;5048185;28;20228;-63
2023/06/30 03:05:15;;;;;;;23.33;17.27;;;20.20;99.90;;;;;;5051764;28;20202;-64
2023/06/30 03:07:41;;;;;;;20.23;16.33;;;20.20;99.90;;;;;;5042407;28;20236;-63
2023/06/30 03:10:07;;;;;;;29.27;17.87;;;20.20;99.90;;;;;;5049069;28;20214;-61
2023/06/30 03:12:32;;;;;;;20.57;16.73;;;20.20;99.90;;;;;;5049108;28;20222;-61
2023/06/30 03:14:58;;;;;;;20.47;17.37;;;20.20;99.90;;;;;;5049228;28;20641;-61
2023/06/30 03:17:23;;;;;;;19.37;17.03;;;20.20;99.90;;;;;;5051000;28;20196;-61
2023/06/30 03:19:49;;;;;;;19.53;16.13;;;20.20;99.90;;;;;;5049333;28;20213;-63
2023/06/30 03:22:14;;;;;;;22.30;18.00;;;20.30;99.90;;;;;;5047307;28;20768;-62
2023/06/30 03:24:39;;;;;;;20.50;15.67;;;20.30;99.90;;;;;;5049756;28;20210;-61
2023/06/30 03:27:05;;;;;;;24.57;16.77;;;20.40;99.90;;;;;;5047220;28;20266;-61
2023/06/30 03:29:31;;;;;;;18.90;16.27;;;20.40;99.90;;;;;;5048110;28;20229;-61
2023/06/30 03:31:56;;;;;;;22.77;17.53;;;20.40;99.90;;;;;;5048462;28;20580;-61
2023/06/30 03:34:22;;;;;;;18.73;16.43;;;20.20;99.90;;;;;;5047834;28;20229;-61
2023/06/30 03:36:49;;;;;;;19.90;16.83;;;20.20;99.90;;;;;;5046375;28;20656;-60
2023/06/30 03:39:14;;;;;;;24.07;17.07;;;20.20;99.90;;;;;;5049282;28;20238;-62
2023/06/30 03:41:40;;;;;;;19.70;16.47;;;20.20;99.90;;;;;;5048425;28;20731;-60
2023/06/30 03:44:05;;;;;;;20.57;16.80;;;20.20;99.90;;;;;;5050198;28;20193;-60
2023/06/30 03:46:31;;;;;;;18.70;16.10;;;20.30;99.90;;;;;;5045475;28;20224;-60
2023/06/30 03:48:56;;;;;;;20.10;16.13;;;20.20;99.90;;;;;;5048073;28;20305;-61
2023/06/30 03:51:22;;;;;;;19.60;16.67;;;20.20;99.90;;;;;;5047206;28;20204;-61
2023/06/30 03:53:47;;;;;;;24.00;17.27;;;20.20;99.90;;;;;;5047806;28;20231;-62
2023/06/30 03:56:13;;;;;;;22.43;16.73;;;20.10;99.90;;;;;;5047833;28;20198;-62
2023/06/30 03:58:38;;;;;;;19.30;16.33;;;20.20;99.90;;;;;;5047464;28;20198;-61
2023/06/30 04:01:05;;;;;;;23.60;17.50;;;20.10;99.90;;;;;;5044802;28;20290;-62
2023/06/30 04:03:30;;;;;;;22.40;16.53;;;20.20;99.90;;;;;;5048091;28;20206;-61
2023/06/30 04:05:56;;;;;;;19.37;16.13;;;20.30;99.90;;;;;;5050941;28;20201;-62
2023/06/30 04:08:21;;;;;;;21.53;17.10;;;20.30;99.90;;;;;;5045215;28;20655;-61
2023/06/30 04:10:48;;;;;;;23.97;17.73;;;20.30;99.90;;;;;;5049903;28;20209;-61
2023/06/30 04:13:13;;;;;;;19.43;16.33;;;20.20;99.90;;;;;;5048547;28;20243;-61
2023/06/30 04:15:39;;;;;;;23.33;16.47;;;20.20;99.90;;;;;;5045474;28;20190;-61
2023/06/30 04:18:04;;;;;;;19.93;16.73;;;20.30;99.90;;;;;;5047292;28;20414;-61
2023/06/30 04:20:30;;;;;;;21.20;17.57;;;20.40;99.90;;;;;;5049808;28;20260;-61
2023/06/30 04:22:55;;;;;;;27.90;16.67;;;20.40;99.90;;;;;;5046197;28;20572;-61
2023/06/30 04:25:21;;;;;;;21.47;17.33;;;20.40;99.90;;;;;;5046975;28;20206;-62
2023/06/30 04:27:46;;;;;;;22.63;16.17;;;20.50;99.90;;;;;;5045345;28;20209;-61
2023/06/30 04:30:12;;;;;;;23.57;16.27;;;20.40;99.90;;;;;;5056034;28;20198;-61
2023/06/30 04:32:38;;;;;;;20.60;16.23;;;20.40;99.90;;;;;;5056997;28;20251;-61
2023/06/30 04:35:04;;;;;;;21.20;16.93;;;20.50;99.90;;;;;;5055139;28;20205;-61
2023/06/30 04:37:29;;;;;;;18.53;14.93;;;20.60;99.90;;;;;;5057085;28;20214;-61
2023/06/30 04:39:58;;;;;;;19.87;16.60;;;20.60;99.90;;;;;;5054992;28;20275;-62
2023/06/30 04:42:27;;;;;;;18.63;15.73;;;20.60;99.90;;;;;;5057057;28;20213;-61
2023/06/30 04:44:53;;;;;;;20.93;16.30;;;20.70;99.90;;;;;;5056930;28;20288;-62
2023/06/30 04:47:18;;;;;;;19.90;16.80;;;20.80;99.90;;;;;;5056763;28;20296;-62
2023/06/30 04:49:44;;;;;;;20.17;16.57;;;20.90;99.90;;;;;;5055140;28;20626;-62
2023/06/30 04:52:10;;;;;;;19.73;15.93;;;20.90;99.90;;;;;;5057511;28;20631;-62
2023/06/30 04:54:36;;;;;;;21.27;17.10;;;20.80;99.90;;;;;;5056864;28;20202;-62
2023/06/30 04:57:01;;;;;;;20.67;16.17;;;20.70;99.90;;;;;;5057138;28;20755;-62
2023/06/30 04:59:27;;;;;;;22.20;17.40;;;20.70;99.90;;;;;;5057223;28;20207;-63
2023/06/30 05:01:53;;;;;;;26.70;17.00;;;20.80;99.90;;;;;;5056683;28;20288;-62
2023/06/30 05:04:18;;;;;;;18.03;15.20;;;20.80;99.90;;;;;;5054695;28;20588;-63
2023/06/30 05:06:44;;;;;;;17.47;15.57;;;20.50;99.90;;;;;;5055761;28;20205;-63
2023/06/30 05:09:09;;;;;;;18.77;15.80;;;20.40;99.90;;;;;;5056941;28;20267;-63
2023/06/30 05:11:35;;;;;;;19.80;15.50;;;20.60;99.90;;;;;;5058046;28;20216;-62
2023/06/30 05:14:00;;;;;;;21.60;17.60;;;20.60;99.90;;;;;;5060895;28;20277;-63
2023/06/30 05:16:26;;;;;;;23.67;18.87;;;20.70;99.90;;;;;;5059167;28;20220;-63
2023/06/30 05:18:52;;;;;;;27.30;19.83;;;20.70;99.90;;;;;;5060597;28;20280;-62
2023/06/30 05:21:17;;;;;;;21.93;16.87;;;20.80;99.90;;;;;;5058536;28;20464;-62
2023/06/30 05:23:43;;;;;;;26.13;19.30;;;20.90;99.90;;;;;;5048428;28;20236;-63
2023/06/30 05:26:09;;;;;;;25.53;18.23;;;20.90;99.90;;;;;;5050993;28;20194;-62
2023/06/30 05:28:36;;;;;;;21.93;17.83;;;20.90;99.90;;;;;;5051146;28;20204;-63
2023/06/30 05:31:01;;;;;;;20.27;17.47;;;21.00;99.90;;;;;;5049404;28;20191;-62
2023/06/30 05:33:27;;;;;;;20.40;18.23;;;21.20;99.90;;;;;;5048618;28;20714;-63
2023/06/30 05:35:53;;;;;;;21.17;18.17;;;21.20;99.90;;;;;;5049932;28;20214;-64
2023/06/30 05:38:19;;;;;;;23.70;19.40;;;21.20;99.90;;;;;;5050085;28;20199;-62
2023/06/30 05:40:44;;;;;;;23.73;17.63;;;21.20;99.90;;;;;;5050034;28;20225;-63
2023/06/30 05:43:10;;;;;;;19.93;17.77;;;21.30;99.90;;;;;;5048560;28;20681;-63
2023/06/30 05:45:35;;;;;;;23.17;18.67;;;21.30;99.90;;;;;;5053993;28;20194;-65
2023/06/30 05:48:01;;;;;;;22.03;18.50;;;21.40;99.90;;;;;;5047009;28;20672;-69
2023/06/30 05:50:27;;;;;;;21.30;17.13;;;21.50;99.90;;;;;;5050811;28;20233;-69
2023/06/30 05:52:53;;;;;;;25.60;16.90;;;21.60;99.90;;;;;;5050653;28;20210;-69
2023/06/30 05:55:18;;;;;;;19.07;16.83;;;21.60;99.90;;;;;;5060050;28;20209;-72
2023/06/30 05:57:44;;;;;;;21.67;16.83;;;21.50;99.90;;;;;;5059378;28;20194;-73
2023/06/30 06:00:10;;;;;;;19.80;15.83;;;21.40;99.90;;;;;;5049938;28;20213;-72
2023/06/30 06:02:36;;;;;;;22.40;17.15;;;21.50;99.90;;;;;;5049729;28;20329;-73
2023/06/30 06:05:02;;;;;;;20.57;17.27;;;21.70;99.90;;;;;;5052267;28;20292;-73
2023/06/30 06:07:27;;;;;;;21.03;17.30;;;21.90;99.90;;;;;;5046537;28;20210;-72
2023/06/30 06:09:53;;;;;;;22.50;17.10;;;22.00;99.90;;;;;;5048005;28;20211;-73
2023/06/30 06:12:18;;;;;;;22.37;17.17;;;22.10;99.90;;;;;;5050220;28;20218;-74
2023/06/30 06:14:44;;;;;;;22.23;18.20;;;22.00;99.90;;;;;;5053392;28;21044;-73
2023/06/30 06:17:10;;;;;;;20.20;17.73;;;21.60;99.90;;;;;;5057801;28;20210;-67
2023/06/30 06:19:35;;;;;;;21.90;17.77;;;21.60;99.90;;;;;;5056488;28;20208;-71
2023/06/30 06:22:01;;;;;;;20.73;17.90;;;21.70;99.90;;;;;;5060303;28;20194;-73
2023/06/30 06:24:26;;;;;;;20.33;16.73;;;21.50;99.90;;;;;;5057122;28;20208;-72
2023/06/30 06:26:52;;;;;;;18.83;15.30;;;21.40;99.90;;;;;;5057153;28;20691;-73
2023/06/30 06:29:21;;;;;;;18.33;15.40;;;21.60;99.90;;;;;;5068422;28;20292;-70
2023/06/30 06:31:51;;;;;;;18.07;14.93;;;21.50;99.90;;;;;;5059129;28;20209;-69
2023/06/30 06:34:20;;;;;;;16.87;12.73;;;21.40;99.90;;;;;;5047623;28;20239;-70
2023/06/30 06:36:46;;;;;;;17.63;13.70;;;21.40;99.90;;;;;;5049958;28;20198;-74
2023/06/30 06:39:12;;;;;;;14.67;13.03;;;21.40;99.90;;;;;;5049584;28;20632;-72
2023/06/30 06:41:38;;;;;;;15.07;13.17;;;21.50;99.90;;;;;;5046860;28;20358;-74
2023/06/30 06:44:04;;;;;;;16.87;13.43;;;21.50;99.90;;;;;;5047860;28;20455;-69
2023/06/30 06:46:30;;;;;;;14.50;12.87;;;21.50;99.90;;;;;;5049022;28;20744;-70
2023/06/30 06:48:55;;;;;;;16.13;13.03;;;21.50;99.90;;;;;;5046764;28;20211;-70
2023/06/30 06:51:21;;;;;;;16.33;13.47;;;21.40;99.90;;;;;;5049052;28;20292;-69
2023/06/30 06:53:46;;;;;;;14.20;11.30;;;21.30;99.90;;;;;;5049137;28;20230;-69
2023/06/30 06:56:12;;;;;;;17.63;13.03;;;21.30;99.90;;;;;;5049467;28;20618;-68
2023/06/30 06:58:38;;;;;;;17.60;13.83;;;21.20;99.90;;;;;;5046913;28;20220;-74
2023/06/30 07:01:04;;;;;;;15.13;12.83;;;21.20;99.90;;;;;;5049590;28;20560;-73
2023/06/30 07:03:30;;;;;;;15.67;12.57;;;21.20;99.90;;;;;;5048566;28;20206;-72
2023/06/30 07:05:56;;;;;;;17.03;14.23;;;21.20;99.90;;;;;;5052840;28;20205;-71
2023/06/30 07:08:22;;;;;;;20.77;13.23;;;21.10;99.90;;;;;;5047988;28;20201;-72
2023/06/30 07:10:50;;;;;;;14.93;13.33;;;21.10;99.90;;;;;;5047441;28;20205;-68
2023/06/30 07:13:19;;;;;;;15.23;12.00;;;21.00;99.90;;;;;;5048401;28;20757;-69
2023/06/30 07:15:47;;;;;;;16.60;13.27;;;21.00;99.90;;;;;;5047481;28;20249;-73
2023/06/30 07:18:13;;;;;;;15.03;12.93;;;21.00;99.90;;;;;;5048711;28;20202;-76
2023/06/30 07:20:38;;;;;;;16.17;13.17;;;20.90;99.90;;;;;;5045261;28;20208;-72
2023/06/30 07:23:04;;;;;;;17.83;13.53;;;20.90;99.90;;;;;;5047980;28;20202;-70
2023/06/30 07:25:29;;;;;;;14.90;12.80;;;20.80;99.90;;;;;;5050749;28;20197;-69
2023/06/30 07:27:57;;;;;;;18.17;13.40;;;21.00;99.90;;;;;;5047697;28;20293;-69
2023/06/30 07:30:27;;;;;;;16.47;12.87;;;21.20;99.90;;;;;;5047347;28;20677;-72
2023/06/30 07:32:53;;;;;;;18.40;13.63;;;21.30;99.90;;;;;;5045805;28;20588;-69
2023/06/30 07:35:20;;;;;;;17.67;14.03;;;21.30;99.90;;;;;;5044581;28;20217;-70
2023/06/30 07:37:47;;;;;;;18.30;12.83;;;21.40;99.90;;;;;;5058885;28;20209;-70
2023/06/30 07:40:14;;;;;;;14.63;12.73;;;21.40;99.90;;;;;;5054506;28;20276;-70
2023/06/30 07:42:39;;;;;;;18.23;14.33;;;21.40;99.90;;;;;;5046038;28;20696;-70
2023/06/30 07:45:09;;;;;;;20.37;14.77;;;21.40;99.90;;;;;;5054971;28;20202;-68
2023/06/30 07:47:36;;;;;;;17.07;14.27;;;21.50;99.90;;;;;;5061903;28;20197;-75
2023/06/30 07:50:09;;;;;;;17.07;13.63;;;21.60;99.90;;;;;;5059984;28;20199;-72
2023/06/30 07:52:36;;;;;;;16.77;13.70;;;21.80;99.90;;;;;;5060284;28;20565;-72
2023/06/30 07:55:03;;;;;;;18.90;14.67;;;21.80;99.90;;;;;;5059445;28;20224;-71
2023/06/30 07:57:28;;;;;;;19.00;14.67;;;21.90;99.90;;;;;;5053370;28;20260;-70
2023/06/30 07:59:54;;;;;;;17.83;14.27;;;21.80;99.90;;;;;;5045433;28;20206;-71
2023/06/30 08:02:19;;;;;;;19.27;14.70;;;21.60;99.90;;;;;;5047194;28;20201;-71
2023/06/30 08:04:45;;;;;;;18.73;14.90;;;21.40;99.90;;;;;;5046100;28;20190;-70
2023/06/30 08:07:10;;;;;;;16.80;14.67;;;21.40;99.90;;;;;;5051160;28;20251;-70
2023/06/30 08:09:36;;;;;;;16.10;14.07;;;21.40;99.90;;;;;;5045002;28;20577;-74
2023/06/30 08:12:01;;;;;;;14.73;13.23;;;21.30;99.90;;;;;;5050878;28;20304;-73
2023/06/30 08:14:27;;;;;;;22.43;14.27;;;21.40;99.90;;;;;;5049052;28;20215;-74
2023/06/30 08:16:52;;;;;;;19.60;14.40;;;21.50;99.90;;;;;;5048807;28;20208;-72
2023/06/30 08:19:18;;;;;;;17.77;15.30;;;21.60;99.90;;;;;;5047188;28;20322;-74
2023/06/30 08:21:43;;;;;;;18.27;14.87;;;21.70;99.90;;;;;;5045960;28;20566;-74
2023/06/30 08:24:09;;;;;;;17.20;14.73;;;21.90;99.90;;;;;;5047752;28;20206;-73
2023/06/30 08:26:34;;;;;;;17.20;14.93;;;21.90;99.90;;;;;;5045592;28;20653;-71
2023/06/30 08:29:00;;;;;;;19.20;15.10;;;21.90;99.90;;;;;;5046158;28;20195;-71
2023/06/30 08:31:26;;;;;;;17.27;13.33;;;21.80;99.90;;;;;;5047115;28;20625;-71
2023/06/30 08:33:51;;;;;;;19.40;15.23;;;22.00;99.90;;;;;;5045499;28;20195;-72
2023/06/30 08:36:16;;;;;;;19.93;15.57;;;22.10;99.90;;;;;;5051151;28;20785;-67
2023/06/30 08:38:42;;;;;;;21.37;14.90;;;22.00;99.90;;;;;;5047617;28;20673;-71
2023/06/30 08:41:08;;;;;;;17.93;13.83;;;22.00;99.90;;;;;;5054770;28;20206;-71
2023/06/30 08:43:36;;;;;;;20.20;15.17;;;22.00;99.90;;;;;;5047657;28;20665;-71
2023/06/30 08:46:03;;;;;;;18.57;15.57;;;22.20;99.90;;;;;;5041977;28;20743;-71
2023/06/30 08:48:30;;;;;;;18.70;15.23;;;22.30;99.90;;;;;;5045763;28;20868;-71
2023/06/30 08:50:58;;;;;;;18.10;15.17;;;22.30;99.90;;;;;;5045796;28;20300;-71
2023/06/30 08:53:26;;;;;;;17.83;15.43;;;22.50;99.90;;;;;;5045341;28;20225;-71
2023/06/30 08:55:54;;;;;;;17.10;15.17;;;22.50;99.90;;;;;;5044185;28;20187;-71
2023/06/30 08:58:20;;;;;;;22.27;15.47;;;22.40;99.90;;;;;;5045937;28;20229;-72
2023/06/30 09:00:49;;;;;;;20.13;16.42;;;22.40;99.90;;;;;;5048042;28;20244;-70
2023/06/30 09:03:15;;;;;;;16.83;14.90;;;22.30;99.90;;;;;;5045664;28;20233;-72
2023/06/30 09:05:41;;;;;;;17.80;15.23;;;22.30;99.90;;;;;;5047397;28;20634;-72
2023/06/30 09:08:44;;;;;;;18.43;15.93;;;22.30;99.90;;;;;;5044977;28;20821;-72
2023/06/30 09:11:11;;;;;;;22.27;17.93;;;22.30;99.90;;;;;;5043802;28;20616;-71
2023/06/30 09:13:39;;;;;;;18.95;16.85;;;22.40;99.90;;;;;;5047147;28;20221;-71
2023/06/30 09:16:10;;;;;;;21.93;16.33;;;22.50;99.90;;;;;;5044983;28;20226;-71
2023/06/30 09:18:36;;;;;;;23.08;17.52;;;22.40;99.90;;;;;;5045442;28;20563;-72
2023/06/30 09:21:05;;;;;;;19.07;16.30;;;22.40;99.90;;;;;;5046099;28;20209;-71
2023/06/30 09:23:32;;;;;;;23.07;18.63;;;22.40;99.90;;;;;;5046121;28;20215;-71
2023/06/30 09:25:57;;;;;;;20.60;17.40;;;22.40;99.90;;;;;;5049088;28;20217;-72
2023/06/30 09:28:23;;;;;;;22.23;18.40;;;22.30;99.90;;;;;;5042959;28;20565;-71
2023/06/30 09:30:49;;;;;;;23.47;18.90;;;22.20;99.90;;;;;;5046889;28;20205;-72
2023/06/30 09:33:16;;;;;;;23.67;19.03;;;22.10;99.90;;;;;;5045474;28;20224;-71
2023/06/30 09:35:46;;;;;;;23.97;19.60;;;22.00;99.90;;;;;;5047073;28;20217;-72
2023/06/30 09:38:14;;;;;;;24.67;19.40;;;21.90;99.90;;;;;;5046540;28;20207;-71
2023/06/30 09:40:50;;;;;;;23.50;21.00;;;21.70;99.90;;;;;;5045468;28;20773;-71
2023/06/30 09:43:17;;;;;;;24.40;20.53;;;21.70;99.90;;;;;;5044916;28;20569;-71
2023/06/30 09:45:44;;;;;;;30.87;24.43;;;21.60;99.90;;;;;;5046872;28;20205;-71
2023/06/30 09:48:13;;;;;;;29.93;25.13;;;21.50;99.90;;;;;;5047335;28;20264;-71
2023/06/30 09:50:41;;;;;;;33.03;24.67;;;20.90;99.90;;;;;;5046988;28;20220;-71
2023/06/30 09:53:08;;;;;;;34.83;26.97;;;20.70;99.90;;;;;;5040434;28;20205;-71
2023/06/30 09:55:48;;;;;;;31.93;25.67;;;20.50;99.90;;;;;;5048591;28;20276;-74
2023/06/30 09:58:15;;;;;;;34.47;24.47;;;20.40;99.90;;;;;;5046230;28;20666;-76
2023/06/30 10:00:41;;;;;;;35.83;27.90;;;20.20;99.90;;;;;;5049663;28;20253;-72
2023/06/30 10:03:08;;;;;;;39.10;28.23;;;20.00;99.90;;;;;;5046057;28;20203;-73
2023/06/30 10:05:35;;;;;;;34.63;27.90;;;20.20;99.90;;;;;;5052294;28;20858;-74
2023/06/30 10:08:01;;;;;;;31.90;25.87;;;20.30;99.90;;;;;;5048911;28;20200;-75
2023/06/30 10:10:28;;;;;;;28.80;25.37;;;20.30;99.90;;;;;;5049465;28;20198;-74
2023/06/30 10:12:56;;;;;;;30.70;25.47;;;20.30;99.90;;;;;;5046658;28;20278;-72
2023/06/30 10:15:22;;;;;;;30.70;25.17;;;20.40;99.90;;;;;;5049631;28;20202;-73
2023/06/30 10:17:48;;;;;;;31.07;24.57;;;20.50;99.90;;;;;;5049332;28;20211;-73
2023/06/30 10:20:13;;;;;;;28.20;23.17;;;20.70;99.90;;;;;;5050087;28;20259;-74
2023/06/30 10:22:39;;;;;;;32.93;23.93;;;20.80;99.90;;;;;;5058139;28;20250;-77
2023/06/30 10:25:10;;;;;;;28.53;22.73;;;20.90;99.90;;;;;;5063121;28;20210;-71
2023/06/30 10:27:36;;;;;;;29.63;23.53;;;20.90;99.90;;;;;;5059324;28;20217;-72
2023/06/30 10:30:02;;;;;;;28.30;21.47;;;20.80;99.90;;;;;;5061504;28;20205;-76
2023/06/30 10:32:28;;;;;;;27.57;21.20;;;20.70;99.90;;;;;;5061048;28;20225;-76
2023/06/30 10:34:53;;;;;;;25.13;21.43;;;20.50;99.90;;;;;;5061479;28;20573;-72
2023/06/30 10:37:19;;;;;;;29.83;22.43;;;20.50;99.90;;;;;;5061685;28;20205;-74
2023/06/30 10:39:46;;;;;;;28.93;20.93;;;20.50;99.90;;;;;;5050005;28;20237;-70
2023/06/30 10:42:12;;;;;;;24.70;20.03;;;20.40;99.90;;;;;;5049136;28;20886;-72
2023/06/30 10:44:39;;;;;;;25.00;19.47;;;20.50;99.90;;;;;;5045860;28;20211;-72
2023/06/30 10:47:05;;;;;;;27.77;20.63;;;20.50;99.90;;;;;;5053236;28;20926;-73
2023/06/30 10:49:41;;;;;;;24.63;19.67;;;20.50;99.90;;;;;;5047729;28;20213;-72
2023/06/30 10:52:11;;;;;;;25.20;20.90;;;20.40;99.90;;;;;;5048834;28;20798;-72
2023/06/30 10:54:44;;;;;;;23.00;20.40;;;20.30;99.90;;;;;;5048441;28;20310;-72
2023/06/30 10:57:10;;;;;;;26.63;20.23;;;20.30;99.90;;;;;;5046837;28;20209;-72
2023/06/30 10:59:43;;;;;;;25.70;20.87;;;20.30;99.90;;;;;;5048131;28;20208;-73
2023/06/30 11:02:30;;;;;;;25.73;20.23;;;20.10;99.90;;;;;;5058613;28;20204;-72
2023/06/30 11:05:17;;;;;;;26.80;22.10;;;20.20;99.90;;;;;;5054938;28;20202;-72
2023/06/30 11:08:09;;;;;;;28.10;22.67;;;20.40;99.90;;;;;;5051182;28;20231;-72
2023/06/30 11:10:45;;;;;;;27.23;20.87;;;20.40;99.90;;;;;;5045352;28;20229;-72
2023/06/30 11:13:11;;;;;;;23.53;20.30;;;20.20;99.90;;;;;;5056607;28;20235;-69
2023/06/30 11:15:45;;;;;;;21.67;19.33;;;20.00;99.90;;;;;;5059932;28;20668;-75
2023/06/30 11:18:19;;;;;;;26.93;19.93;;;20.00;99.90;;;;;;5069162;28;20228;-75
2023/06/30 11:21:04;;;;;;;30.17;21.80;;;20.20;99.90;;;;;;5051917;28;20229;-74
2023/06/30 11:23:37;;;;;;;22.50;20.10;;;20.30;99.90;;;;;;5058945;28;20209;-74
2023/06/30 11:26:17;;;;;;;28.90;21.70;;;20.40;99.90;;;;;;5058354;28;20209;-74
2023/06/30 11:28:50;;;;;;;27.13;20.60;;;20.50;99.90;;;;;;5058808;28;20222;-71
2023/06/30 11:31:16;;;;;;;22.90;19.37;;;20.60;99.90;;;;;;5061444;28;20548;-70
2023/06/30 11:33:43;;;;;;;24.30;21.10;;;20.70;99.90;;;;;;5065506;28;20737;-69
2023/06/30 11:36:13;;;;;;;22.70;20.20;;;20.80;99.90;;;;;;5067547;28;20210;-71
2023/06/30 11:38:49;;;;;;;26.07;20.20;;;20.90;99.90;;;;;;5067324;28;20194;-71
2023/06/30 11:41:19;;;;;;;27.07;20.70;;;20.90;99.90;;;;;;5064299;28;20227;-71
2023/06/30 11:43:53;;;;;;;26.90;21.33;;;21.00;99.90;;;;;;5066496;28;20629;-76
2023/06/30 11:46:19;;;;;;;26.17;21.47;;;21.20;99.90;;;;;;5064522;28;20200;-73
2023/06/30 11:48:45;;;;;;;27.60;21.40;;;21.10;99.90;;;;;;5064032;28;20199;-76
2023/06/30 11:51:13;;;;;;;22.30;19.40;;;20.80;99.90;;;;;;5066111;28;20220;-76
2023/06/30 11:53:43;;;;;;;11.57;10.37;;;20.50;99.90;;;;;;5068582;28;20666;-72
2023/06/30 11:56:08;;;;;;;10.90;9.23;;;20.20;99.90;;;;;;5059684;28;20797;-72
2023/06/30 11:58:34;;;;;;;7.43;6.53;;;20.00;99.90;;;;;;5064726;28;20291;-69
2023/06/30 12:01:03;;;;;;;8.23;6.50;;;19.90;99.90;;;;;;5064503;28;20564;-71
2023/06/30 12:03:29;;;;;;;6.50;5.90;;;19.70;99.90;;;;;;5067071;28;20204;-72
2023/06/30 12:05:56;;;;;;;8.03;6.83;;;19.80;99.90;;;;;;5063798;28;20972;-74
2023/06/30 12:08:24;;;;;;;10.30;7.47;;;19.90;99.90;;;;;;5064567;28;20189;-75
2023/06/30 12:10:49;;;;;;;6.10;5.50;;;19.80;99.90;;;;;;5064138;28;20197;-78
2023/06/30 12:13:16;;;;;;;5.43;4.83;;;19.80;99.90;;;;;;5064087;28;20234;-71
2023/06/30 12:15:42;;;;;;;5.67;5.17;;;19.70;99.90;;;;;;5066875;28;20203;-76
2023/06/30 12:18:07;;;;;;;5.47;4.70;;;19.70;99.90;;;;;;5066228;28;20253;-71
2023/06/30 12:20:35;;;;;;;4.93;4.43;;;19.70;99.90;;;;;;5062804;28;20253;-72
2023/06/30 12:23:01;;;;;;;6.73;5.13;;;19.90;99.90;;;;;;5059189;28;20200;-69
2023/06/30 12:25:33;;;;;;;6.00;5.47;;;19.90;99.90;;;;;;5057600;28;20197;-77
2023/06/30 12:27:59;;;;;;;5.90;5.27;;;19.90;99.90;;;;;;5057570;28;20200;-78